Time;durP1;ratioP1;P1;durP2;ratioP2;P2;SDS_P1;SDS_P2;PMS_P1;PMS_P2;Temp;Humidity;BMP_temperature;BMP_pressure;BME280_temperature;BME280_humidity;BME280_pressure;Samples;Min_cycle;Max_cycle;Signal;HPM_P1;HPM_P2
2021/09/23 00:00:24;;;;;;;2.10;1.90;;;13.10;99.90;;;;;;5064793;28;20201;-77
2021/09/23 00:03:09;;;;;;;2.27;2.07;;;13.10;99.90;;;;;;5067538;28;20194;-77
2021/09/23 00:05:37;;;;;;;2.23;2.03;;;13.10;99.90;;;;;;5078463;28;20212;-77
2021/09/23 00:08:04;;;;;;;2.10;1.90;;;13.00;99.90;;;;;;5066250;28;20193;-77
2021/09/23 00:10:34;;;;;;;1.80;1.70;;;13.00;99.90;;;;;;5082402;28;20197;-77
2021/09/23 00:13:02;;;;;;;2.13;1.97;;;13.00;99.90;;;;;;5064801;28;20191;-77
2021/09/23 00:15:31;;;;;;;1.70;1.60;;;13.00;99.90;;;;;;5066263;28;20207;-77
2021/09/23 00:18:00;;;;;;;2.57;2.00;;;13.00;99.90;;;;;;5066007;28;20207;-76
2021/09/23 00:20:30;;;;;;;2.40;2.20;;;13.00;99.90;;;;;;5056302;28;20205;-76
2021/09/23 00:22:57;;;;;;;2.50;2.23;;;13.00;99.90;;;;;;5067321;28;20201;-77
2021/09/23 00:25:25;;;;;;;2.47;2.20;;;12.90;99.90;;;;;;5070464;28;20225;-77
2021/09/23 00:27:53;;;;;;;2.93;2.53;;;12.80;99.90;;;;;;5070079;28;20206;-77
2021/09/23 00:30:20;;;;;;;2.93;2.73;;;12.80;99.90;;;;;;5059026;28;20205;-77
2021/09/23 00:32:49;;;;;;;3.10;2.80;;;12.80;99.90;;;;;;5070585;28;20191;-77
2021/09/23 00:35:16;;;;;;;3.10;2.23;;;13.20;99.90;;;;;;5077807;28;20201;-77
2021/09/23 00:37:44;;;;;;;2.27;2.00;;;12.70;99.90;;;;;;5069825;28;20987;-77
2021/09/23 00:40:12;;;;;;;2.43;2.10;;;12.70;99.90;;;;;;5068738;28;20233;-77
2021/09/23 00:42:41;;;;;;;2.57;2.17;;;12.70;99.90;;;;;;5068978;28;20694;-77
2021/09/23 00:45:11;;;;;;;2.37;1.70;;;12.70;99.90;;;;;;5075630;28;20573;-77
2021/09/23 00:47:38;;;;;;;2.43;1.57;;;12.70;99.90;;;;;;5070720;28;20235;-77
2021/09/23 00:50:09;;;;;;;2.93;2.20;;;12.70;99.90;;;;;;5076245;28;20250;-77
2021/09/23 00:52:39;;;;;;;1.90;1.80;;;12.80;99.90;;;;;;5061390;28;20202;-77
2021/09/23 00:55:09;;;;;;;1.67;1.57;;;12.80;99.90;;;;;;5063166;28;20209;-77
2021/09/23 00:57:36;;;;;;;1.50;1.40;;;12.90;99.90;;;;;;5075724;28;20210;-77
2021/09/23 01:00:06;;;;;;;1.50;1.40;;;12.90;99.90;;;;;;5067895;28;20215;-77
2021/09/23 01:02:43;;;;;;;1.57;1.47;;;13.00;99.90;;;;;;5068211;28;20662;-77
2021/09/23 01:05:12;;;;;;;1.47;1.37;;;13.10;99.90;;;;;;5070080;28;20193;-77
2021/09/23 01:07:46;;;;;;;1.53;1.23;;;13.10;99.90;;;;;;5069128;28;20290;-77
2021/09/23 01:10:16;;;;;;;1.67;1.43;;;13.10;99.90;;;;;;5067886;28;20209;-76
2021/09/23 01:12:45;;;;;;;1.53;1.20;;;13.20;99.90;;;;;;5066831;28;20198;-77
2021/09/23 01:15:15;;;;;;;1.93;1.43;;;13.20;99.90;;;;;;5065097;28;20568;-77
2021/09/23 01:17:45;;;;;;;2.10;1.60;;;13.20;99.90;;;;;;5085984;28;20624;-77
2021/09/23 01:20:15;;;;;;;2.77;1.20;;;13.30;99.90;;;;;;5068240;28;20224;-77
2021/09/23 01:22:43;;;;;;;2.10;1.77;;;13.30;99.90;;;;;;5068046;28;20317;-77
2021/09/23 01:25:19;;;;;;;1.60;1.43;;;13.40;99.90;;;;;;5067452;28;20287;-77
2021/09/23 01:27:48;;;;;;;2.00;1.40;;;13.50;99.90;;;;;;5068622;28;20205;-77
2021/09/23 01:30:21;;;;;;;3.00;1.70;;;13.50;99.90;;;;;;5067146;28;20536;-77
2021/09/23 01:32:50;;;;;;;1.30;1.20;;;13.60;99.90;;;;;;5068032;28;20235;-77
2021/09/23 01:35:20;;;;;;;1.40;1.10;;;13.60;99.90;;;;;;5060152;28;20238;-77
2021/09/23 01:37:49;;;;;;;1.40;1.30;;;13.70;99.90;;;;;;5067904;28;20284;-77
2021/09/23 01:40:16;;;;;;;2.07;1.53;;;13.80;99.90;;;;;;5054378;28;20205;-77
2021/09/23 01:42:45;;;;;;;1.53;1.43;;;13.80;99.90;;;;;;5069130;28;20709;-77
2021/09/23 01:45:13;;;;;;;1.97;1.33;;;13.90;99.90;;;;;;5066725;28;20210;-76
2021/09/23 01:47:46;;;;;;;1.37;1.27;;;13.90;99.90;;;;;;5062769;28;20557;-77
2021/09/23 01:50:16;;;;;;;1.77;1.30;;;13.90;99.90;;;;;;5068219;28;20209;-77
2021/09/23 01:52:45;;;;;;;1.80;1.70;;;13.90;99.90;;;;;;5068399;28;20210;-77
2021/09/23 01:55:17;;;;;;;4.20;1.57;;;14.00;99.90;;;;;;5066995;28;21406;-77
2021/09/23 01:57:47;;;;;;;1.43;1.27;;;14.00;99.90;;;;;;5068522;28;20205;-77
2021/09/23 02:00:15;;;;;;;2.47;1.80;;;14.00;99.90;;;;;;5067095;28;20238;-77
2021/09/23 02:02:48;;;;;;;1.90;1.37;;;14.10;99.90;;;;;;5067944;28;20246;-77
2021/09/23 02:05:31;;;;;;;1.17;1.10;;;14.10;99.90;;;;;;5068122;28;20675;-77
2021/09/23 02:07:58;;;;;;;1.37;1.27;;;14.10;99.90;;;;;;5068027;28;20203;-77
2021/09/23 02:10:27;;;;;;;1.10;1.10;;;14.10;99.90;;;;;;5067084;28;20216;-77
2021/09/23 02:12:55;;;;;;;1.00;1.00;;;14.10;99.90;;;;;;5067158;28;20194;-77
2021/09/23 02:15:24;;;;;;;1.23;1.20;;;14.10;99.90;;;;;;5066483;28;20297;-77
2021/09/23 02:17:51;;;;;;;1.97;1.63;;;14.20;99.90;;;;;;5067802;28;20229;-77
2021/09/23 02:20:20;;;;;;;1.77;1.20;;;14.20;99.90;;;;;;5067759;28;20209;-77
2021/09/23 02:22:49;;;;;;;1.67;1.43;;;14.20;99.90;;;;;;5066679;28;20221;-77
2021/09/23 02:25:18;;;;;;;1.50;1.40;;;14.30;99.90;;;;;;5066157;28;20618;-77
2021/09/23 02:27:47;;;;;;;1.93;1.30;;;14.30;99.90;;;;;;5067486;28;20208;-77
2021/09/23 02:30:14;;;;;;;1.40;1.30;;;14.30;99.90;;;;;;5063719;28;20302;-77
2021/09/23 02:32:41;;;;;;;1.10;1.00;;;14.30;99.90;;;;;;5069428;28;20376;-77
2021/09/23 02:35:09;;;;;;;1.70;1.20;;;14.40;99.90;;;;;;5065109;28;20299;-77
2021/09/23 02:37:36;;;;;;;2.23;1.40;;;14.30;99.90;;;;;;5077704;28;20632;-77
2021/09/23 02:40:05;;;;;;;1.67;1.40;;;14.40;99.90;;;;;;5057949;28;20579;-77
2021/09/23 02:42:32;;;;;;;2.73;1.57;;;14.30;99.90;;;;;;5067373;28;20383;-77
2021/09/23 02:45:00;;;;;;;1.63;1.27;;;14.30;99.90;;;;;;5075092;28;20212;-77
2021/09/23 02:47:27;;;;;;;1.03;1.03;;;14.30;99.90;;;;;;5066880;28;20208;-77
2021/09/23 02:49:54;;;;;;;1.57;1.47;;;14.30;99.90;;;;;;5091486;28;20588;-77
2021/09/23 02:52:22;;;;;;;1.93;1.00;;;14.30;99.90;;;;;;5067113;28;20192;-77
2021/09/23 02:54:49;;;;;;;1.30;1.20;;;14.30;99.90;;;;;;5066456;28;20304;-77
2021/09/23 02:57:17;;;;;;;3.93;1.97;;;14.30;99.90;;;;;;5066982;28;20632;-77
2021/09/23 02:59:44;;;;;;;1.50;1.40;;;14.20;99.90;;;;;;5066528;28;20200;-77
2021/09/23 03:02:12;;;;;;;2.77;1.67;;;14.20;99.90;;;;;;5066903;28;20272;-77
2021/09/23 03:04:40;;;;;;;4.47;1.70;;;14.20;99.90;;;;;;5065540;28;20248;-77
2021/09/23 03:07:06;;;;;;;1.53;1.40;;;14.10;99.90;;;;;;5067278;28;20203;-77
2021/09/23 03:09:34;;;;;;;1.40;1.20;;;14.10;99.90;;;;;;5066438;28;20213;-77
2021/09/23 03:12:01;;;;;;;3.97;1.40;;;14.00;99.90;;;;;;5066257;28;20559;-77
2021/09/23 03:14:28;;;;;;;1.63;1.30;;;14.00;99.90;;;;;;5065554;28;20295;-77
2021/09/23 03:16:55;;;;;;;1.77;1.60;;;14.00;99.90;;;;;;5066917;28;20699;-77
2021/09/23 03:19:26;;;;;;;2.33;1.57;;;13.90;99.90;;;;;;5066828;28;20210;-77
2021/09/23 03:21:54;;;;;;;1.00;1.00;;;13.90;99.90;;;;;;5066935;28;20371;-78
2021/09/23 03:24:21;;;;;;;2.23;1.63;;;13.90;99.90;;;;;;5066010;28;20200;-77
2021/09/23 03:26:48;;;;;;;2.50;1.27;;;13.90;99.90;;;;;;5066469;28;20276;-76
2021/09/23 03:29:15;;;;;;;1.40;1.30;;;13.80;99.90;;;;;;5065499;28;20589;-77
2021/09/23 03:31:42;;;;;;;2.37;1.73;;;13.90;99.90;;;;;;5066752;28;20187;-77
2021/09/23 03:34:09;;;;;;;1.47;1.30;;;13.90;99.90;;;;;;5065854;28;20202;-77
2021/09/23 03:36:38;;;;;;;3.13;1.23;;;13.90;99.90;;;;;;5068248;28;20202;-77
2021/09/23 03:39:06;;;;;;;2.03;1.20;;;13.90;99.90;;;;;;5065714;28;20224;-78
2021/09/23 03:41:33;;;;;;;1.33;1.20;;;14.00;99.90;;;;;;5063512;28;20555;-77
2021/09/23 03:44:00;;;;;;;2.57;1.43;;;14.10;99.90;;;;;;5064761;28;20208;-77
2021/09/23 03:46:28;;;;;;;2.33;1.53;;;14.10;99.90;;;;;;5066948;28;20212;-77
2021/09/23 03:48:55;;;;;;;1.30;1.20;;;14.10;99.90;;;;;;5067136;28;20233;-77
2021/09/23 03:51:23;;;;;;;2.87;1.83;;;14.10;99.90;;;;;;5066841;28;20219;-77
2021/09/23 03:53:52;;;;;;;2.77;1.87;;;14.10;99.90;;;;;;5066033;28;20249;-77
2021/09/23 03:56:19;;;;;;;4.27;1.67;;;14.10;99.90;;;;;;5065828;28;20794;-77
2021/09/23 03:58:48;;;;;;;1.83;1.70;;;14.10;99.90;;;;;;5068831;28;20206;-77
2021/09/23 04:01:15;;;;;;;4.13;2.00;;;14.10;99.90;;;;;;5070321;28;20191;-77
2021/09/23 04:03:42;;;;;;;4.70;2.27;;;14.00;99.90;;;;;;5069009;28;20238;-77
2021/09/23 04:06:10;;;;;;;2.20;1.80;;;14.00;99.90;;;;;;5070052;28;20230;-77
2021/09/23 04:08:38;;;;;;;2.07;1.70;;;14.00;99.90;;;;;;5070064;28;20215;-77
2021/09/23 04:11:15;;;;;;;1.93;1.63;;;14.00;99.90;;;;;;5068832;28;20210;-77
2021/09/23 04:13:43;;;;;;;2.30;1.80;;;14.00;99.90;;;;;;5081415;28;20194;-77
2021/09/23 04:16:10;;;;;;;3.13;1.77;;;14.00;99.90;;;;;;5069793;28;20242;-77
2021/09/23 04:18:37;;;;;;;2.63;1.80;;;13.90;99.90;;;;;;5070276;28;20280;-77
2021/09/23 04:21:04;;;;;;;1.90;1.60;;;13.90;99.90;;;;;;5070028;28;20309;-77
2021/09/23 04:23:31;;;;;;;1.40;1.30;;;13.90;99.90;;;;;;5068769;28;20231;-77
2021/09/23 04:25:58;;;;;;;1.83;1.40;;;13.90;99.90;;;;;;5066626;28;20206;-76
2021/09/23 04:28:26;;;;;;;1.30;1.20;;;13.90;99.90;;;;;;5068314;28;20762;-77
2021/09/23 04:30:56;;;;;;;1.10;1.10;;;13.90;99.90;;;;;;5069871;28;20203;-77
2021/09/23 04:33:26;;;;;;;1.30;1.20;;;13.90;99.90;;;;;;5069112;28;20228;-77
2021/09/23 04:35:56;;;;;;;2.27;1.40;;;13.80;99.90;;;;;;5069697;28;20579;-77
2021/09/23 04:38:25;;;;;;;1.47;1.30;;;13.80;99.90;;;;;;5069531;28;20629;-77
2021/09/23 04:40:53;;;;;;;1.40;1.20;;;13.80;99.90;;;;;;5069342;28;20807;-77
2021/09/23 04:43:21;;;;;;;1.30;1.20;;;13.80;99.90;;;;;;5068114;28;20227;-77
2021/09/23 04:45:49;;;;;;;1.97;1.10;;;13.80;99.90;;;;;;5069466;28;20233;-77
2021/09/23 04:48:16;;;;;;;1.60;1.30;;;13.80;99.90;;;;;;5069410;28;20202;-77
2021/09/23 04:50:45;;;;;;;1.70;1.60;;;13.80;99.90;;;;;;5069410;28;20207;-77
2021/09/23 04:53:12;;;;;;;1.73;1.43;;;13.90;99.90;;;;;;5065941;28;20202;-77
2021/09/23 04:55:39;;;;;;;1.93;1.80;;;13.90;99.90;;;;;;5067717;28;20253;-76
2021/09/23 04:58:06;;;;;;;1.67;1.57;;;13.90;99.90;;;;;;5068366;28;20235;-77
2021/09/23 05:00:33;;;;;;;3.77;1.33;;;13.90;99.90;;;;;;5070665;28;20737;-76
2021/09/23 05:03:02;;;;;;;2.53;1.83;;;13.90;99.90;;;;;;5069139;28;20809;-77
2021/09/23 05:05:30;;;;;;;4.87;2.37;;;13.80;99.90;;;;;;5068798;28;20662;-75
2021/09/23 05:07:58;;;;;;;3.43;2.20;;;13.80;99.90;;;;;;5069559;28;20212;-78
2021/09/23 05:10:25;;;;;;;3.83;2.40;;;13.70;99.90;;;;;;5067636;28;20571;-77
2021/09/23 05:12:52;;;;;;;3.97;2.63;;;13.70;99.90;;;;;;5068686;28;20227;-77
2021/09/23 05:15:19;;;;;;;4.57;2.80;;;13.70;99.90;;;;;;5068926;28;20214;-77
2021/09/23 05:17:47;;;;;;;3.80;2.43;;;13.70;99.90;;;;;;5079255;28;20202;-77
2021/09/23 05:20:16;;;;;;;2.33;1.87;;;13.70;99.90;;;;;;5068714;28;20213;-77
2021/09/23 05:22:43;;;;;;;2.40;1.90;;;13.70;99.90;;;;;;5070190;28;20249;-77
2021/09/23 05:25:11;;;;;;;3.80;2.13;;;13.80;99.90;;;;;;5067092;28;20214;-77
2021/09/23 05:27:39;;;;;;;5.27;2.10;;;13.80;99.90;;;;;;5068570;28;20203;-77
2021/09/23 05:30:07;;;;;;;2.53;1.80;;;13.90;99.90;;;;;;5067399;28;20662;-77
2021/09/23 05:32:34;;;;;;;1.80;1.50;;;13.90;99.90;;;;;;5063324;28;20203;-77
2021/09/23 05:35:02;;;;;;;3.27;2.30;;;14.00;99.90;;;;;;5065995;28;20314;-77
2021/09/23 05:37:30;;;;;;;1.87;1.73;;;14.00;99.90;;;;;;5067857;28;20294;-77
2021/09/23 05:39:58;;;;;;;3.10;2.00;;;14.00;99.90;;;;;;5064653;28;20236;-77
2021/09/23 05:42:25;;;;;;;2.37;2.17;;;14.00;99.90;;;;;;5069803;28;20722;-77
2021/09/23 05:44:52;;;;;;;4.97;2.63;;;14.00;99.90;;;;;;5072288;28;20225;-77
2021/09/23 05:47:19;;;;;;;2.60;1.97;;;14.00;99.90;;;;;;5071529;28;20200;-77
2021/09/23 05:49:46;;;;;;;1.80;1.70;;;14.00;99.90;;;;;;5068209;28;20201;-77
2021/09/23 05:52:16;;;;;;;1.83;1.73;;;14.00;99.90;;;;;;5069486;28;20671;-77
2021/09/23 05:54:45;;;;;;;3.30;2.07;;;14.10;99.90;;;;;;5066924;28;20212;-77
2021/09/23 05:57:17;;;;;;;5.77;2.40;;;14.10;99.90;;;;;;5073869;28;20235;-77
2021/09/23 05:59:44;;;;;;;4.87;2.57;;;14.10;99.90;;;;;;5084960;28;20211;-77
2021/09/23 06:02:11;;;;;;;8.43;3.37;;;14.10;99.90;;;;;;5068359;28;20194;-77
2021/09/23 06:04:38;;;;;;;4.10;2.47;;;14.10;99.90;;;;;;5066666;28;20666;-78
2021/09/23 06:07:05;;;;;;;2.30;2.10;;;14.10;99.90;;;;;;5082305;28;20513;-77
2021/09/23 06:09:32;;;;;;;4.87;2.80;;;14.10;99.90;;;;;;5067790;28;20219;-77
2021/09/23 06:12:01;;;;;;;3.57;2.70;;;14.10;99.90;;;;;;5060714;28;20201;-78
2021/09/23 06:14:28;;;;;;;7.80;3.20;;;14.10;99.90;;;;;;5052652;28;20205;-79
2021/09/23 06:16:56;;;;;;;3.90;2.67;;;14.10;99.90;;;;;;5073613;28;20191;-77
2021/09/23 06:19:22;;;;;;;3.03;2.50;;;14.20;99.90;;;;;;5068401;28;20207;-77
2021/09/23 06:21:50;;;;;;;3.20;2.20;;;14.20;99.90;;;;;;5064992;28;20286;-77
2021/09/23 06:24:17;;;;;;;2.87;2.00;;;14.20;99.90;;;;;;5061990;28;20591;-77
2021/09/23 06:26:44;;;;;;;3.13;2.53;;;14.30;99.90;;;;;;5063719;28;20888;-76
2021/09/23 06:29:12;;;;;;;4.77;2.30;;;14.30;99.90;;;;;;5067531;28;20201;-81
2021/09/23 06:31:39;;;;;;;3.20;2.50;;;14.40;99.90;;;;;;5064593;28;20265;-77
2021/09/23 06:34:07;;;;;;;4.03;2.77;;;14.40;99.90;;;;;;5067389;28;20230;-79
2021/09/23 06:36:35;;;;;;;2.50;2.30;;;14.50;99.90;;;;;;5066663;28;20222;-78
2021/09/23 06:39:03;;;;;;;2.73;2.23;;;14.70;99.90;;;;;;5062406;28;20302;-79
2021/09/23 06:41:30;;;;;;;2.67;1.63;;;14.80;99.90;;;;;;5065250;28;20326;-80
2021/09/23 06:43:59;;;;;;;2.00;1.83;;;15.30;99.90;;;;;;5063359;28;20226;-79
2021/09/23 06:46:27;;;;;;;2.50;2.23;;;15.10;99.90;;;;;;5066720;28;21234;-76
2021/09/23 06:48:55;;;;;;;2.37;2.10;;;15.20;99.90;;;;;;5069413;28;20682;-76
2021/09/23 06:51:22;;;;;;;2.00;1.87;;;15.30;99.90;;;;;;5072792;28;20232;-79
2021/09/23 06:53:49;;;;;;;5.30;2.47;;;15.30;99.90;;;;;;5063664;28;20242;-80
2021/09/23 06:56:17;;;;;;;2.20;2.00;;;15.30;99.90;;;;;;5069637;28;20237;-81
2021/09/23 06:58:44;;;;;;;4.03;2.57;;;15.40;99.90;;;;;;5074147;28;20224;-79
2021/09/23 07:01:32;;;;;;;4.27;2.97;;;15.40;99.90;;;;;;5065779;28;20200;-80
2021/09/23 07:04:18;;;;;;;5.00;3.03;;;15.50;99.90;;;;;;5057741;28;20232;-81
2021/09/23 07:07:08;;;;;;;2.63;2.43;;;15.60;99.90;;;;;;5034103;28;20292;-83
2021/09/23 07:09:44;;;;;;;4.37;2.47;;;15.70;99.90;;;;;;5012570;28;20770;-79
2021/09/23 07:12:19;;;;;;;3.83;2.27;;;15.80;99.90;;;;;;5005956;28;20260;-80
2021/09/23 07:14:46;;;;;;;4.30;2.43;;;15.90;99.90;;;;;;5037453;28;20198;-80
2021/09/23 07:17:15;;;;;;;7.50;3.17;;;16.00;99.90;;;;;;5020658;28;20317;-81
2021/09/23 07:19:42;;;;;;;5.10;2.77;;;16.10;99.90;;;;;;5014274;28;20300;-78
2021/09/23 07:22:09;;;;;;;2.77;2.20;;;16.20;99.90;;;;;;5014600;28;20293;-80
2021/09/23 07:24:37;;;;;;;2.60;2.10;;;16.30;99.90;;;;;;5016172;28;20253;-80
2021/09/23 07:27:04;;;;;;;8.73;2.13;;;16.40;99.90;;;;;;5007122;28;20206;-78
2021/09/23 07:29:31;;;;;;;2.90;1.73;;;16.50;99.90;;;;;;5012275;28;20601;-80
2021/09/23 07:31:59;;;;;;;1.80;1.70;;;16.50;99.90;;;;;;5014461;28;20246;-78
2021/09/23 07:34:27;;;;;;;2.50;1.80;;;16.50;99.90;;;;;;5030081;28;20195;-79
2021/09/23 07:36:55;;;;;;;2.23;1.97;;;16.60;99.90;;;;;;5019434;28;20202;-79
2021/09/23 07:39:22;;;;;;;3.20;2.00;;;16.60;99.90;;;;;;5016740;28;20202;-80
2021/09/23 07:41:50;;;;;;;3.63;2.53;;;16.70;99.90;;;;;;5037894;28;20349;-80
2021/09/23 07:44:20;;;;;;;3.87;2.67;;;16.70;99.90;;;;;;5047601;28;20569;-78
2021/09/23 07:46:48;;;;;;;4.80;2.60;;;16.70;99.90;;;;;;5067177;28;20513;-79
2021/09/23 07:49:15;;;;;;;2.70;2.47;;;16.70;99.90;;;;;;5068009;28;20223;-80
2021/09/23 07:51:44;;;;;;;2.73;1.93;;;16.70;99.90;;;;;;5074167;28;20203;-81
2021/09/23 07:54:12;;;;;;;2.10;1.90;;;16.70;99.90;;;;;;5077288;28;20220;-77
2021/09/23 07:56:39;;;;;;;3.17;2.10;;;16.80;99.90;;;;;;5067995;28;20236;-80
2021/09/23 07:59:06;;;;;;;4.27;2.13;;;16.80;99.90;;;;;;5075689;28;20231;-81
2021/09/23 08:01:34;;;;;;;3.50;2.10;;;16.80;99.90;;;;;;5075297;28;20197;-81
2021/09/23 08:04:03;;;;;;;2.03;1.80;;;16.90;99.90;;;;;;5065787;28;20787;-78
2021/09/23 08:06:30;;;;;;;2.60;1.97;;;16.90;99.90;;;;;;5073513;28;20197;-80
2021/09/23 08:09:00;;;;;;;1.90;1.70;;;16.90;99.90;;;;;;5067903;28;20296;-78
2021/09/23 08:11:28;;;;;;;1.87;1.77;;;16.90;99.90;;;;;;5072799;28;20372;-79
2021/09/23 08:14:11;;;;;;;2.43;2.03;;;16.90;99.90;;;;;;5069060;28;20515;-80
2021/09/23 08:16:39;;;;;;;2.10;2.00;;;16.90;99.90;;;;;;5065963;28;20914;-79
2021/09/23 08:19:20;;;;;;;2.03;1.77;;;17.00;99.90;;;;;;5064475;28;20202;-72
2021/09/23 08:22:00;;;;;;;1.53;1.43;;;17.10;99.90;;;;;;5063121;28;20197;-74
2021/09/23 08:24:28;;;;;;;6.73;2.23;;;17.20;99.90;;;;;;5074996;28;20558;-72
2021/09/23 08:26:58;;;;;;;2.97;1.93;;;17.20;99.90;;;;;;5063022;28;20467;-72
2021/09/23 08:29:26;;;;;;;5.17;2.50;;;17.30;99.90;;;;;;5066116;28;20615;-72
2021/09/23 08:31:53;;;;;;;6.63;2.87;;;17.50;99.90;;;;;;5069511;28;20201;-72
2021/09/23 08:34:21;;;;;;;4.57;2.77;;;17.50;99.90;;;;;;5065987;28;20248;-72
2021/09/23 08:36:48;;;;;;;3.33;2.20;;;17.60;99.90;;;;;;5068487;28;20289;-72
2021/09/23 08:39:16;;;;;;;4.20;2.30;;;17.70;99.90;;;;;;5082030;28;20362;-73
2021/09/23 08:41:46;;;;;;;2.33;2.13;;;17.60;99.90;;;;;;5066975;28;20702;-73
2021/09/23 08:44:13;;;;;;;4.38;2.03;;;17.60;99.90;;;;;;5070034;28;20904;-71
2021/09/23 08:46:41;;;;;;;3.83;2.20;;;17.60;99.90;;;;;;5064736;28;20208;-71
2021/09/23 08:49:08;;;;;;;3.70;2.37;;;17.60;99.90;;;;;;5067540;28;20207;-72
2021/09/23 08:51:45;;;;;;;4.37;2.67;;;17.50;99.90;;;;;;5065048;28;20306;-72
2021/09/23 08:54:12;;;;;;;6.53;3.33;;;17.50;99.90;;;;;;5063378;28;20203;-72
2021/09/23 08:56:39;;;;;;;4.77;2.87;;;17.40;99.90;;;;;;5060337;28;20227;-73
2021/09/23 08:59:07;;;;;;;4.00;2.40;;;17.40;99.90;;;;;;5078742;28;20206;-72
2021/09/23 09:01:40;;;;;;;2.00;1.80;;;17.40;99.90;;;;;;5070895;28;20196;-72
2021/09/23 09:04:32;;;;;;;3.07;2.07;;;17.40;99.90;;;;;;5066350;28;20298;-71
2021/09/23 09:07:39;;;;;;;1.57;1.47;;;17.30;99.90;;;;;;5040068;28;20449;-73
2021/09/23 09:10:26;;;;;;;3.10;1.63;;;17.40;99.90;;;;;;5052353;28;20212;-71
2021/09/23 09:12:54;;;;;;;3.13;1.97;;;17.30;99.90;;;;;;5031495;28;20207;-72
2021/09/23 09:15:31;;;;;;;2.40;2.23;;;17.30;99.90;;;;;;5049324;28;20197;-73
2021/09/23 09:17:58;;;;;;;2.90;2.30;;;17.40;99.90;;;;;;5028291;28;20293;-71
2021/09/23 09:20:25;;;;;;;4.00;3.20;;;17.40;99.90;;;;;;5036569;28;20227;-72
2021/09/23 09:22:52;;;;;;;8.38;4.03;;;17.40;99.90;;;;;;5040867;28;20217;-72
2021/09/23 09:25:20;;;;;;;5.40;3.40;;;17.40;99.90;;;;;;5025965;28;20219;-73
2021/09/23 09:27:49;;;;;;;3.75;3.30;;;17.40;99.90;;;;;;5014648;28;20219;-70
2021/09/23 09:30:22;;;;;;;6.68;2.90;;;17.40;99.90;;;;;;5044892;28;20587;-70
2021/09/23 09:32:56;;;;;;;4.93;2.92;;;17.50;99.90;;;;;;5039921;28;20669;-71
2021/09/23 09:35:27;;;;;;;3.25;2.80;;;17.50;99.90;;;;;;5034256;28;20727;-70
2021/09/23 09:37:56;;;;;;;4.07;3.00;;;17.60;99.90;;;;;;5034011;28;21292;-70
2021/09/23 09:40:26;;;;;;;6.28;3.10;;;17.60;99.90;;;;;;5019538;28;20202;-70
2021/09/23 09:42:55;;;;;;;5.97;3.40;;;17.70;99.90;;;;;;5077236;28;20208;-70
2021/09/23 09:45:28;;;;;;;3.67;3.03;;;17.70;99.90;;;;;;5065005;28;20247;-70
2021/09/23 09:48:00;;;;;;;5.18;3.45;;;17.80;99.90;;;;;;5065821;28;20234;-70
2021/09/23 09:50:29;;;;;;;8.43;4.30;;;17.70;99.90;;;;;;5065816;28;20262;-70
2021/09/23 09:53:01;;;;;;;7.75;5.07;;;17.70;99.90;;;;;;5065644;28;20262;-70
2021/09/23 09:55:30;;;;;;;9.63;5.88;;;17.70;99.90;;;;;;5067040;28;20231;-70
2021/09/23 09:57:57;;;;;;;6.30;4.18;;;17.70;99.90;;;;;;5060915;28;20229;-71
2021/09/23 10:00:26;;;;;;;8.95;4.78;;;17.70;99.90;;;;;;5065192;28;20200;-71
2021/09/23 10:02:53;;;;;;;9.85;4.85;;;17.70;99.90;;;;;;5067856;28;20235;-70
2021/09/23 10:05:32;;;;;;;4.93;3.70;;;17.70;99.90;;;;;;5074753;28;20226;-71
2021/09/23 10:08:00;;;;;;;5.45;4.03;;;17.70;99.90;;;;;;5068896;28;20200;-71
2021/09/23 10:10:31;;;;;;;7.37;5.03;;;17.80;99.90;;;;;;5067262;28;20201;-71
2021/09/23 10:13:02;;;;;;;6.20;4.28;;;17.80;99.90;;;;;;5067409;28;20253;-70
2021/09/23 10:15:30;;;;;;;4.43;3.83;;;17.80;99.90;;;;;;5060728;28;20193;-70
2021/09/23 10:18:03;;;;;;;7.47;3.95;;;17.70;99.90;;;;;;5066992;28;20216;-70
2021/09/23 10:20:33;;;;;;;3.40;3.00;;;17.70;99.90;;;;;;5062778;28;20215;-71
2021/09/23 10:23:02;;;;;;;4.50;3.30;;;17.70;99.90;;;;;;5077146;28;20234;-70
2021/09/23 10:25:32;;;;;;;4.35;3.20;;;17.60;99.90;;;;;;5066633;28;20218;-70
2021/09/23 10:28:04;;;;;;;6.65;3.63;;;17.60;99.90;;;;;;5074920;28;20265;-71
2021/09/23 10:30:51;;;;;;;2.60;2.33;;;17.60;99.90;;;;;;5067563;28;20321;-71
2021/09/23 10:33:21;;;;;;;2.50;2.30;;;17.60;99.90;;;;;;5072244;28;20271;-70
2021/09/23 10:35:52;;;;;;;2.87;2.50;;;17.60;99.90;;;;;;5071637;28;20676;-71
2021/09/23 10:38:26;;;;;;;2.88;2.65;;;17.70;99.90;;;;;;5065985;28;20207;-71
2021/09/23 10:40:54;;;;;;;5.10;3.05;;;17.70;99.90;;;;;;5066516;28;20208;-71
2021/09/23 10:43:22;;;;;;;2.53;2.33;;;17.70;99.90;;;;;;5066355;28;20200;-71
2021/09/23 10:45:56;;;;;;;2.42;2.22;;;17.80;99.90;;;;;;5067153;28;20207;-71
2021/09/23 10:48:27;;;;;;;2.67;2.13;;;17.70;99.90;;;;;;5059432;28;20208;-70
2021/09/23 10:50:56;;;;;;;2.75;2.55;;;17.80;99.90;;;;;;5061208;28;20208;-70
2021/09/23 10:53:25;;;;;;;10.10;3.55;;;17.80;99.90;;;;;;5059433;28;20319;-70
2021/09/23 10:56:04;;;;;;;3.90;3.00;;;17.80;99.90;;;;;;5066723;28;20232;-71
2021/09/23 10:58:39;;;;;;;3.85;3.28;;;17.80;99.90;;;;;;5065638;28;20216;-70
2021/09/23 11:01:08;;;;;;;4.20;3.13;;;17.80;99.90;;;;;;5067698;28;20231;-70
2021/09/23 11:03:38;;;;;;;4.78;2.67;;;17.90;99.90;;;;;;5070427;28;20192;-70
2021/09/23 11:06:11;;;;;;;4.90;2.88;;;17.90;99.90;;;;;;5074714;28;20216;-71
2021/09/23 11:08:42;;;;;;;2.60;2.40;;;17.90;99.90;;;;;;5064567;28;20196;-71
2021/09/23 11:11:10;;;;;;;2.28;2.17;;;17.90;99.90;;;;;;5065983;28;20239;-70
2021/09/23 11:13:40;;;;;;;2.55;2.20;;;17.90;99.90;;;;;;5065417;28;20228;-70
2021/09/23 11:16:10;;;;;;;2.50;1.88;;;17.90;99.90;;;;;;5067145;28;20658;-70
2021/09/23 11:18:41;;;;;;;1.85;1.75;;;17.90;99.90;;;;;;5066241;28;20255;-70
2021/09/23 11:21:10;;;;;;;2.70;1.95;;;18.00;99.90;;;;;;5066991;28;20275;-70
2021/09/23 11:23:38;;;;;;;1.80;1.70;;;18.00;99.90;;;;;;5066671;28;20619;-70
2021/09/23 11:26:06;;;;;;;3.15;2.10;;;18.00;99.90;;;;;;5065987;28;20220;-70
2021/09/23 11:28:33;;;;;;;3.23;2.50;;;18.00;99.90;;;;;;5065200;28;20689;-70
2021/09/23 11:31:01;;;;;;;2.97;2.63;;;18.10;99.90;;;;;;5066180;28;20600;-70
2021/09/23 11:33:29;;;;;;;2.97;2.67;;;18.00;99.90;;;;;;5070324;28;20200;-70
2021/09/23 11:35:57;;;;;;;2.25;2.05;;;18.00;99.90;;;;;;5069605;28;20672;-70
2021/09/23 11:38:27;;;;;;;2.40;2.22;;;18.00;99.90;;;;;;5066020;28;20699;-70
2021/09/23 11:40:59;;;;;;;2.70;2.25;;;18.00;99.90;;;;;;5062263;28;20290;-70
2021/09/23 11:43:30;;;;;;;3.43;2.57;;;18.00;99.90;;;;;;5080482;28;20207;-70
2021/09/23 11:45:59;;;;;;;3.67;3.05;;;18.00;99.90;;;;;;5049147;28;20217;-70
2021/09/23 11:48:34;;;;;;;4.85;2.45;;;18.00;99.90;;;;;;5065331;28;20208;-70
2021/09/23 11:51:03;;;;;;;2.65;2.45;;;18.00;99.90;;;;;;5057304;28;20547;-71
2021/09/23 11:53:37;;;;;;;2.55;2.35;;;18.00;99.90;;;;;;5082546;28;20204;-70
2021/09/23 11:56:06;;;;;;;2.67;2.47;;;18.10;99.90;;;;;;5061657;28;20740;-70
2021/09/23 11:58:45;;;;;;;2.28;2.08;;;18.00;99.90;;;;;;5059537;28;20208;-71
2021/09/23 12:01:15;;;;;;;2.30;2.05;;;18.10;99.90;;;;;;5069349;28;20283;-71
2021/09/23 12:03:45;;;;;;;3.28;2.22;;;18.10;99.90;;;;;;5065255;28;20210;-71
2021/09/23 12:06:16;;;;;;;4.60;3.38;;;18.00;99.90;;;;;;5055462;28;20217;-70
2021/09/23 12:08:51;;;;;;;3.90;3.20;;;18.10;99.90;;;;;;5058119;28;20566;-71
2021/09/23 12:11:19;;;;;;;3.33;3.03;;;18.00;99.90;;;;;;5068731;28;20777;-70
2021/09/23 12:13:50;;;;;;;3.75;2.75;;;18.00;99.90;;;;;;5063975;28;20437;-70
2021/09/23 12:16:22;;;;;;;3.70;3.38;;;18.00;99.90;;;;;;5061659;28;20232;-70
2021/09/23 12:18:51;;;;;;;3.95;2.72;;;18.00;99.90;;;;;;5069120;28;20201;-73
2021/09/23 12:21:21;;;;;;;5.15;3.15;;;18.00;99.90;;;;;;5060970;28;20223;-73
2021/09/23 12:23:49;;;;;;;4.47;3.40;;;18.10;99.90;;;;;;5054162;28;20498;-73
2021/09/23 12:26:27;;;;;;;6.28;3.22;;;17.90;99.90;;;;;;5062812;28;20224;-70
2021/09/23 12:29:01;;;;;;;4.43;3.20;;;17.80;99.90;;;;;;5060935;28;20227;-72
2021/09/23 12:31:39;;;;;;;3.35;3.00;;;17.80;99.90;;;;;;5074263;28;20459;-72
2021/09/23 12:34:13;;;;;;;3.83;3.30;;;17.80;99.90;;;;;;5063201;28;20370;-71
2021/09/23 12:36:42;;;;;;;5.40;3.65;;;17.80;99.90;;;;;;5061369;28;20212;-71
2021/09/23 12:39:18;;;;;;;4.28;2.92;;;17.80;99.90;;;;;;5065709;28;20564;-71
2021/09/23 12:42:09;;;;;;;5.32;3.17;;;17.70;99.90;;;;;;5067270;28;20443;-70
2021/09/23 12:44:38;;;;;;;4.03;3.00;;;17.70;99.90;;;;;;5052126;28;20224;-69
2021/09/23 12:47:11;;;;;;;6.00;3.42;;;17.70;99.90;;;;;;5059598;28;20600;-70
2021/09/23 12:49:39;;;;;;;5.18;3.47;;;17.70;99.90;;;;;;5062572;28;20210;-70
2021/09/23 12:52:15;;;;;;;6.43;3.53;;;17.70;99.90;;;;;;5055222;28;20561;-70
2021/09/23 12:54:52;;;;;;;5.00;3.35;;;17.60;99.90;;;;;;5058977;28;20325;-69
2021/09/23 12:57:22;;;;;;;4.90;4.18;;;17.60;99.90;;;;;;5081324;28;20251;-69
2021/09/23 13:00:02;;;;;;;6.13;3.55;;;17.60;99.90;;;;;;5068059;28;20493;-70